sensor_id;sensor_type;location;lat;lon;timestamp;temperature;humidity
6486;DHT22;3276;48.490;9.222;2023-11-19T00:02:19;8.00;39.60
6486;DHT22;3276;48.490;9.222;2023-11-19T00:04:44;8.00;40.60
6486;DHT22;3276;48.490;9.222;2023-11-19T00:07:10;8.00;40.30
6486;DHT22;3276;48.490;9.222;2023-11-19T00:09:37;8.00;40.60
6486;DHT22;3276;48.490;9.222;2023-11-19T00:12:04;8.10;40.70
6486;DHT22;3276;48.490;9.222;2023-11-19T00:14:30;8.10;40.70
6486;DHT22;3276;48.490;9.222;2023-11-19T00:16:56;8.10;40.70
6486;DHT22;3276;48.490;9.222;2023-11-19T00:19:21;8.10;41.60
6486;DHT22;3276;48.490;9.222;2023-11-19T00:21:47;8.10;40.70
6486;DHT22;3276;48.490;9.222;2023-11-19T00:24:12;8.20;41.60
6486;DHT22;3276;48.490;9.222;2023-11-19T00:26:40;8.10;42.70
6486;DHT22;3276;48.490;9.222;2023-11-19T00:29:07;8.20;43.70
6486;DHT22;3276;48.490;9.222;2023-11-19T00:31:32;8.30;45.80
6486;DHT22;3276;48.490;9.222;2023-11-19T00:33:58;8.40;46.60
6486;DHT22;3276;48.490;9.222;2023-11-19T00:36:23;8.50;48.20
6486;DHT22;3276;48.490;9.222;2023-11-19T00:38:49;8.60;48.30
6486;DHT22;3276;48.490;9.222;2023-11-19T00:41:15;8.70;51.50
6486;DHT22;3276;48.490;9.222;2023-11-19T00:43:42;8.80;50.00
6486;DHT22;3276;48.490;9.222;2023-11-19T00:46:08;8.90;50.20
6486;DHT22;3276;48.490;9.222;2023-11-19T00:48:33;9.00;49.40
6486;DHT22;3276;48.490;9.222;2023-11-19T00:50:59;9.00;49.70
6486;DHT22;3276;48.490;9.222;2023-11-19T00:53:24;9.10;50.90
6486;DHT22;3276;48.490;9.222;2023-11-19T00:55:50;9.30;50.90
6486;DHT22;3276;48.490;9.222;2023-11-19T00:58:15;9.40;50.20
6486;DHT22;3276;48.490;9.222;2023-11-19T01:00:43;9.40;48.30
6486;DHT22;3276;48.490;9.222;2023-11-19T01:03:09;9.50;49.10
6486;DHT22;3276;48.490;9.222;2023-11-19T01:05:34;9.50;46.80
6486;DHT22;3276;48.490;9.222;2023-11-19T01:08:00;9.50;46.50
6486;DHT22;3276;48.490;9.222;2023-11-19T01:10:25;9.50;48.00
6486;DHT22;3276;48.490;9.222;2023-11-19T01:12:51;9.60;47.90
6486;DHT22;3276;48.490;9.222;2023-11-19T01:15:17;9.70;47.10
6486;DHT22;3276;48.490;9.222;2023-11-19T01:17:44;9.70;45.50
6486;DHT22;3276;48.490;9.222;2023-11-19T01:20:10;9.80;47.20
6486;DHT22;3276;48.490;9.222;2023-11-19T01:22:38;9.80;44.40
6486;DHT22;3276;48.490;9.222;2023-11-19T01:25:04;9.90;45.20
6486;DHT22;3276;48.490;9.222;2023-11-19T01:27:30;9.90;44.50
6486;DHT22;3276;48.490;9.222;2023-11-19T01:29:56;9.90;44.10
6486;DHT22;3276;48.490;9.222;2023-11-19T01:32:22;9.90;43.10
6486;DHT22;3276;48.490;9.222;2023-11-19T01:34:49;10.00;42.00
6486;DHT22;3276;48.490;9.222;2023-11-19T01:37:15;9.90;43.60
6486;DHT22;3276;48.490;9.222;2023-11-19T01:39:44;9.80;44.20
6486;DHT22;3276;48.490;9.222;2023-11-19T01:42:10;9.90;44.10
6486;DHT22;3276;48.490;9.222;2023-11-19T01:44:37;9.90;43.60
6486;DHT22;3276;48.490;9.222;2023-11-19T01:47:03;9.90;43.50
6486;DHT22;3276;48.490;9.222;2023-11-19T01:49:30;9.90;45.00
6486;DHT22;3276;48.490;9.222;2023-11-19T01:51:57;10.00;44.90
6486;DHT22;3276;48.490;9.222;2023-11-19T01:54:23;10.10;45.30
6486;DHT22;3276;48.490;9.222;2023-11-19T01:56:49;10.10;43.80
6486;DHT22;3276;48.490;9.222;2023-11-19T01:59:15;10.10;43.60
6486;DHT22;3276;48.490;9.222;2023-11-19T02:01:41;10.10;43.30
6486;DHT22;3276;48.490;9.222;2023-11-19T02:04:08;10.10;43.60
6486;DHT22;3276;48.490;9.222;2023-11-19T02:06:40;10.10;45.10
6486;DHT22;3276;48.490;9.222;2023-11-19T02:09:06;10.10;46.50
6486;DHT22;3276;48.490;9.222;2023-11-19T02:11:34;10.20;45.00
6486;DHT22;3276;48.490;9.222;2023-11-19T02:14:00;10.20;45.40
6486;DHT22;3276;48.490;9.222;2023-11-19T02:16:26;10.20;45.50
6486;DHT22;3276;48.490;9.222;2023-11-19T02:18:51;10.20;44.10
6486;DHT22;3276;48.490;9.222;2023-11-19T02:21:17;10.10;43.30
6486;DHT22;3276;48.490;9.222;2023-11-19T02:23:43;10.20;46.50
6486;DHT22;3276;48.490;9.222;2023-11-19T02:26:32;10.20;44.00
6486;DHT22;3276;48.490;9.222;2023-11-19T02:29:01;10.20;42.60
6486;DHT22;3276;48.490;9.222;2023-11-19T02:31:28;10.20;44.30
6486;DHT22;3276;48.490;9.222;2023-11-19T02:33:53;10.20;44.60
6486;DHT22;3276;48.490;9.222;2023-11-19T02:36:20;10.20;45.40
6486;DHT22;3276;48.490;9.222;2023-11-19T02:38:46;10.20;45.00
6486;DHT22;3276;48.490;9.222;2023-11-19T02:41:13;10.20;44.50
6486;DHT22;3276;48.490;9.222;2023-11-19T02:43:39;10.30;44.50
6486;DHT22;3276;48.490;9.222;2023-11-19T02:46:05;10.30;43.10
6486;DHT22;3276;48.490;9.222;2023-11-19T02:48:34;10.30;43.30
6486;DHT22;3276;48.490;9.222;2023-11-19T02:51:03;10.30;43.30
6486;DHT22;3276;48.490;9.222;2023-11-19T02:53:32;10.30;43.90
6486;DHT22;3276;48.490;9.222;2023-11-19T02:55:57;10.30;43.60
6486;DHT22;3276;48.490;9.222;2023-11-19T02:58:31;10.30;44.00
6486;DHT22;3276;48.490;9.222;2023-11-19T03:00:57;10.20;45.50
6486;DHT22;3276;48.490;9.222;2023-11-19T03:03:27;10.20;46.10
6486;DHT22;3276;48.490;9.222;2023-11-19T03:06:05;10.20;46.00
6486;DHT22;3276;48.490;9.222;2023-11-19T03:08:30;10.20;46.00
6486;DHT22;3276;48.490;9.222;2023-11-19T03:10:56;10.20;47.70
6486;DHT22;3276;48.490;9.222;2023-11-19T03:13:21;10.20;47.70
6486;DHT22;3276;48.490;9.222;2023-11-19T03:15:47;10.30;48.30
6486;DHT22;3276;48.490;9.222;2023-11-19T03:18:12;10.40;47.50
6486;DHT22;3276;48.490;9.222;2023-11-19T03:20:38;10.30;47.80
6486;DHT22;3276;48.490;9.222;2023-11-19T03:23:04;10.30;48.00
6486;DHT22;3276;48.490;9.222;2023-11-19T03:25:29;10.40;47.60
6486;DHT22;3276;48.490;9.222;2023-11-19T03:28:03;10.30;47.50
6486;DHT22;3276;48.490;9.222;2023-11-19T03:30:29;10.40;48.40
6486;DHT22;3276;48.490;9.222;2023-11-19T03:32:56;10.40;48.10
6486;DHT22;3276;48.490;9.222;2023-11-19T03:35:22;10.40;48.30
6486;DHT22;3276;48.490;9.222;2023-11-19T03:37:48;10.40;48.30
6486;DHT22;3276;48.490;9.222;2023-11-19T03:40:14;10.50;48.80
6486;DHT22;3276;48.490;9.222;2023-11-19T03:42:40;10.50;47.50
6486;DHT22;3276;48.490;9.222;2023-11-19T03:45:07;10.50;48.10
6486;DHT22;3276;48.490;9.222;2023-11-19T03:47:35;10.40;48.30
6486;DHT22;3276;48.490;9.222;2023-11-19T03:50:01;10.50;49.70
6486;DHT22;3276;48.490;9.222;2023-11-19T03:52:28;10.50;50.00
6486;DHT22;3276;48.490;9.222;2023-11-19T03:54:53;10.50;49.90
6486;DHT22;3276;48.490;9.222;2023-11-19T03:57:20;10.50;48.30
6486;DHT22;3276;48.490;9.222;2023-11-19T03:59:46;10.50;48.60
6486;DHT22;3276;48.490;9.222;2023-11-19T04:02:12;10.50;48.90
6486;DHT22;3276;48.490;9.222;2023-11-19T04:04:37;10.50;48.30
6486;DHT22;3276;48.490;9.222;2023-11-19T04:07:04;10.50;48.40
6486;DHT22;3276;48.490;9.222;2023-11-19T04:09:30;10.60;49.60
6486;DHT22;3276;48.490;9.222;2023-11-19T04:11:58;10.70;48.50
6486;DHT22;3276;48.490;9.222;2023-11-19T04:14:24;10.70;48.50
6486;DHT22;3276;48.490;9.222;2023-11-19T04:16:49;10.70;47.00
6486;DHT22;3276;48.490;9.222;2023-11-19T04:19:16;10.70;46.50
6486;DHT22;3276;48.490;9.222;2023-11-19T04:21:42;10.70;47.00
6486;DHT22;3276;48.490;9.222;2023-11-19T04:24:09;10.70;47.00
6486;DHT22;3276;48.490;9.222;2023-11-19T04:26:40;10.80;47.80
6486;DHT22;3276;48.490;9.222;2023-11-19T04:29:08;10.80;46.10
6486;DHT22;3276;48.490;9.222;2023-11-19T04:31:34;10.90;46.10
6486;DHT22;3276;48.490;9.222;2023-11-19T04:33:59;10.90;44.90
6486;DHT22;3276;48.490;9.222;2023-11-19T04:36:25;10.90;45.30
6486;DHT22;3276;48.490;9.222;2023-11-19T04:38:51;10.90;45.60
6486;DHT22;3276;48.490;9.222;2023-11-19T04:41:16;10.90;44.90
6486;DHT22;3276;48.490;9.222;2023-11-19T04:43:42;10.90;44.70
6486;DHT22;3276;48.490;9.222;2023-11-19T04:46:09;10.90;44.60
6486;DHT22;3276;48.490;9.222;2023-11-19T04:48:35;10.90;45.00
6486;DHT22;3276;48.490;9.222;2023-11-19T04:51:00;11.00;44.40
6486;DHT22;3276;48.490;9.222;2023-11-19T04:53:26;11.00;43.70
6486;DHT22;3276;48.490;9.222;2023-11-19T04:55:52;11.10;43.40
6486;DHT22;3276;48.490;9.222;2023-11-19T04:58:17;11.10;43.80
6486;DHT22;3276;48.490;9.222;2023-11-19T05:00:43;11.10;42.80
6486;DHT22;3276;48.490;9.222;2023-11-19T05:03:08;11.10;43.00
6486;DHT22;3276;48.490;9.222;2023-11-19T05:05:34;11.20;42.20
6486;DHT22;3276;48.490;9.222;2023-11-19T05:07:59;11.20;41.10
6486;DHT22;3276;48.490;9.222;2023-11-19T05:10:25;11.20;40.50
6486;DHT22;3276;48.490;9.222;2023-11-19T05:12:51;11.30;40.20
6486;DHT22;3276;48.490;9.222;2023-11-19T05:15:17;11.30;39.30
6486;DHT22;3276;48.490;9.222;2023-11-19T05:17:43;11.30;39.00
6486;DHT22;3276;48.490;9.222;2023-11-19T05:20:09;11.30;38.90
6486;DHT22;3276;48.490;9.222;2023-11-19T05:22:42;11.30;38.70
6486;DHT22;3276;48.490;9.222;2023-11-19T05:25:08;11.40;37.80
6486;DHT22;3276;48.490;9.222;2023-11-19T05:27:35;11.40;37.40
6486;DHT22;3276;48.490;9.222;2023-11-19T05:30:02;11.40;36.90
6486;DHT22;3276;48.490;9.222;2023-11-19T05:32:28;11.50;36.50
6486;DHT22;3276;48.490;9.222;2023-11-19T05:34:53;11.50;36.30
6486;DHT22;3276;48.490;9.222;2023-11-19T05:37:19;11.50;37.50
6486;DHT22;3276;48.490;9.222;2023-11-19T05:39:45;11.60;37.20
6486;DHT22;3276;48.490;9.222;2023-11-19T05:42:11;11.60;35.60
6486;DHT22;3276;48.490;9.222;2023-11-19T05:44:36;11.50;35.80
6486;DHT22;3276;48.490;9.222;2023-11-19T05:47:03;11.60;37.40
6486;DHT22;3276;48.490;9.222;2023-11-19T05:49:29;11.60;36.10
6486;DHT22;3276;48.490;9.222;2023-11-19T05:51:54;11.70;35.40
6486;DHT22;3276;48.490;9.222;2023-11-19T05:54:21;11.70;35.50
6486;DHT22;3276;48.490;9.222;2023-11-19T05:56:49;11.70;35.30
6486;DHT22;3276;48.490;9.222;2023-11-19T05:59:15;11.70;35.70
6486;DHT22;3276;48.490;9.222;2023-11-19T06:01:43;11.70;35.60
6486;DHT22;3276;48.490;9.222;2023-11-19T06:04:09;11.70;35.40
6486;DHT22;3276;48.490;9.222;2023-11-19T06:06:35;11.70;35.40
6486;DHT22;3276;48.490;9.222;2023-11-19T06:09:01;11.70;35.70
6486;DHT22;3276;48.490;9.222;2023-11-19T06:11:27;11.80;36.00
6486;DHT22;3276;48.490;9.222;2023-11-19T06:13:53;11.70;34.10
6486;DHT22;3276;48.490;9.222;2023-11-19T06:16:19;11.80;34.70
6486;DHT22;3276;48.490;9.222;2023-11-19T06:18:45;11.80;34.10
6486;DHT22;3276;48.490;9.222;2023-11-19T06:21:12;11.90;34.50
6486;DHT22;3276;48.490;9.222;2023-11-19T06:23:37;11.90;32.60
6486;DHT22;3276;48.490;9.222;2023-11-19T06:26:04;11.90;32.60
6486;DHT22;3276;48.490;9.222;2023-11-19T06:28:30;11.90;33.00
6486;DHT22;3276;48.490;9.222;2023-11-19T06:30:56;11.90;32.70
6486;DHT22;3276;48.490;9.222;2023-11-19T06:33:23;11.90;32.60
6486;DHT22;3276;48.490;9.222;2023-11-19T06:35:49;11.90;33.40
6486;DHT22;3276;48.490;9.222;2023-11-19T06:38:15;11.90;33.10
6486;DHT22;3276;48.490;9.222;2023-11-19T06:40:40;11.90;33.40
6486;DHT22;3276;48.490;9.222;2023-11-19T06:43:06;12.00;32.70
6486;DHT22;3276;48.490;9.222;2023-11-19T06:45:34;11.90;34.10
6486;DHT22;3276;48.490;9.222;2023-11-19T06:48:02;11.90;33.70
6486;DHT22;3276;48.490;9.222;2023-11-19T06:50:29;12.00;33.30
6486;DHT22;3276;48.490;9.222;2023-11-19T06:52:54;11.90;33.30
6486;DHT22;3276;48.490;9.222;2023-11-19T06:55:20;11.90;33.70
6486;DHT22;3276;48.490;9.222;2023-11-19T06:57:45;11.90;33.70
6486;DHT22;3276;48.490;9.222;2023-11-19T07:00:11;12.00;33.40
6486;DHT22;3276;48.490;9.222;2023-11-19T07:02:37;11.90;35.40
6486;DHT22;3276;48.490;9.222;2023-11-19T07:05:03;12.00;34.60
6486;DHT22;3276;48.490;9.222;2023-11-19T07:07:33;12.00;33.60
6486;DHT22;3276;48.490;9.222;2023-11-19T07:09:59;12.10;35.10
6486;DHT22;3276;48.490;9.222;2023-11-19T07:12:24;12.10;34.30
6486;DHT22;3276;48.490;9.222;2023-11-19T07:14:52;12.10;33.90
6486;DHT22;3276;48.490;9.222;2023-11-19T07:17:18;12.10;33.30
6486;DHT22;3276;48.490;9.222;2023-11-19T07:19:46;12.10;33.20
6486;DHT22;3276;48.490;9.222;2023-11-19T07:22:11;12.10;33.80
6486;DHT22;3276;48.490;9.222;2023-11-19T07:24:39;12.10;33.50
6486;DHT22;3276;48.490;9.222;2023-11-19T07:27:05;12.10;34.50
6486;DHT22;3276;48.490;9.222;2023-11-19T07:29:32;12.20;33.30
6486;DHT22;3276;48.490;9.222;2023-11-19T07:31:57;12.20;34.20
6486;DHT22;3276;48.490;9.222;2023-11-19T07:34:23;12.20;32.90
6486;DHT22;3276;48.490;9.222;2023-11-19T07:36:49;12.20;31.70
6486;DHT22;3276;48.490;9.222;2023-11-19T07:39:15;12.30;31.70
6486;DHT22;3276;48.490;9.222;2023-11-19T07:41:41;12.30;30.60
6486;DHT22;3276;48.490;9.222;2023-11-19T07:44:06;12.30;29.40
6486;DHT22;3276;48.490;9.222;2023-11-19T07:46:32;12.30;28.70
6486;DHT22;3276;48.490;9.222;2023-11-19T07:48:58;12.40;28.40
6486;DHT22;3276;48.490;9.222;2023-11-19T07:51:23;12.40;27.30
6486;DHT22;3276;48.490;9.222;2023-11-19T07:53:49;12.50;27.80
6486;DHT22;3276;48.490;9.222;2023-11-19T07:56:14;12.60;27.20
6486;DHT22;3276;48.490;9.222;2023-11-19T07:58:40;12.60;26.50
6486;DHT22;3276;48.490;9.222;2023-11-19T08:01:06;12.70;26.00
6486;DHT22;3276;48.490;9.222;2023-11-19T08:03:32;12.70;25.30
6486;DHT22;3276;48.490;9.222;2023-11-19T08:06:00;12.60;26.30
6486;DHT22;3276;48.490;9.222;2023-11-19T08:08:26;12.60;26.20
6486;DHT22;3276;48.490;9.222;2023-11-19T08:10:52;12.70;25.30
6486;DHT22;3276;48.490;9.222;2023-11-19T08:13:18;12.60;25.40
6486;DHT22;3276;48.490;9.222;2023-11-19T08:15:45;12.60;25.30
6486;DHT22;3276;48.490;9.222;2023-11-19T08:18:11;12.60;25.50
6486;DHT22;3276;48.490;9.222;2023-11-19T08:20:37;12.60;25.90
6486;DHT22;3276;48.490;9.222;2023-11-19T08:23:03;12.60;26.30
6486;DHT22;3276;48.490;9.222;2023-11-19T08:25:31;12.60;26.00
6486;DHT22;3276;48.490;9.222;2023-11-19T08:27:59;12.70;25.10
6486;DHT22;3276;48.490;9.222;2023-11-19T08:30:25;12.70;25.00
6486;DHT22;3276;48.490;9.222;2023-11-19T08:32:51;12.70;24.50
6486;DHT22;3276;48.490;9.222;2023-11-19T08:35:16;12.80;24.20
6486;DHT22;3276;48.490;9.222;2023-11-19T08:37:42;12.80;23.90
6486;DHT22;3276;48.490;9.222;2023-11-19T08:40:09;12.80;22.80
6486;DHT22;3276;48.490;9.222;2023-11-19T08:42:34;12.80;22.60
6486;DHT22;3276;48.490;9.222;2023-11-19T08:45:00;12.80;23.50
6486;DHT22;3276;48.490;9.222;2023-11-19T08:47:26;12.90;21.30
6486;DHT22;3276;48.490;9.222;2023-11-19T08:49:52;13.10;20.50
6486;DHT22;3276;48.490;9.222;2023-11-19T08:52:18;13.20;19.60
6486;DHT22;3276;48.490;9.222;2023-11-19T08:54:43;13.40;19.50
6486;DHT22;3276;48.490;9.222;2023-11-19T08:57:09;13.50;17.70
6486;DHT22;3276;48.490;9.222;2023-11-19T08:59:35;13.60;17.00
6486;DHT22;3276;48.490;9.222;2023-11-19T09:02:00;13.70;16.60
6486;DHT22;3276;48.490;9.222;2023-11-19T09:04:27;13.70;14.50
6486;DHT22;3276;48.490;9.222;2023-11-19T09:06:52;13.70;16.40
6486;DHT22;3276;48.490;9.222;2023-11-19T09:09:18;13.80;16.70
6486;DHT22;3276;48.490;9.222;2023-11-19T09:11:43;13.80;15.40
6486;DHT22;3276;48.490;9.222;2023-11-19T09:14:09;13.90;15.60
6486;DHT22;3276;48.490;9.222;2023-11-19T09:16:34;14.00;13.40
6486;DHT22;3276;48.490;9.222;2023-11-19T09:19:00;14.00;13.90
6486;DHT22;3276;48.490;9.222;2023-11-19T09:21:27;14.10;12.50
6486;DHT22;3276;48.490;9.222;2023-11-19T09:23:54;14.20;12.60
6486;DHT22;3276;48.490;9.222;2023-11-19T09:26:20;14.10;12.50
6486;DHT22;3276;48.490;9.222;2023-11-19T09:28:45;14.10;12.50
6486;DHT22;3276;48.490;9.222;2023-11-19T09:31:18;14.20;11.50
6486;DHT22;3276;48.490;9.222;2023-11-19T09:33:44;14.30;11.70
6486;DHT22;3276;48.490;9.222;2023-11-19T09:36:12;14.50;11.50
6486;DHT22;3276;48.490;9.222;2023-11-19T09:38:42;14.70;11.20
6486;DHT22;3276;48.490;9.222;2023-11-19T09:41:09;14.90;9.00
6486;DHT22;3276;48.490;9.222;2023-11-19T09:43:39;14.80;8.60
6486;DHT22;3276;48.490;9.222;2023-11-19T09:46:06;14.80;8.80
6486;DHT22;3276;48.490;9.222;2023-11-19T09:48:33;14.90;8.60
6486;DHT22;3276;48.490;9.222;2023-11-19T09:51:01;15.20;8.60
6486;DHT22;3276;48.490;9.222;2023-11-19T09:53:27;15.10;6.10
6486;DHT22;3276;48.490;9.222;2023-11-19T09:55:53;15.10;6.40
6486;DHT22;3276;48.490;9.222;2023-11-19T09:58:19;15.00;6.90
6486;DHT22;3276;48.490;9.222;2023-11-19T10:00:44;15.10;7.90
6486;DHT22;3276;48.490;9.222;2023-11-19T10:03:11;15.10;7.10
6486;DHT22;3276;48.490;9.222;2023-11-19T10:05:37;15.20;6.90
6486;DHT22;3276;48.490;9.222;2023-11-19T10:08:07;15.10;5.30
6486;DHT22;3276;48.490;9.222;2023-11-19T10:10:33;15.10;5.50
6486;DHT22;3276;48.490;9.222;2023-11-19T10:12:59;15.00;6.20
6486;DHT22;3276;48.490;9.222;2023-11-19T10:15:26;14.90;6.30
6486;DHT22;3276;48.490;9.222;2023-11-19T10:17:58;14.90;5.80
6486;DHT22;3276;48.490;9.222;2023-11-19T10:20:24;15.00;5.90
6486;DHT22;3276;48.490;9.222;2023-11-19T10:22:55;14.90;5.50
6486;DHT22;3276;48.490;9.222;2023-11-19T10:25:28;14.90;6.50
6486;DHT22;3276;48.490;9.222;2023-11-19T10:27:55;15.10;6.20
6486;DHT22;3276;48.490;9.222;2023-11-19T10:33:13;15.30;3.70
6486;DHT22;3276;48.490;9.222;2023-11-19T10:35:56;15.30;4.30
6486;DHT22;3276;48.490;9.222;2023-11-19T10:38:23;15.40;3.10
6486;DHT22;3276;48.490;9.222;2023-11-19T10:40:49;15.20;4.30
6486;DHT22;3276;48.490;9.222;2023-11-19T10:43:16;15.20;4.30
6486;DHT22;3276;48.490;9.222;2023-11-19T10:45:42;15.40;4.40
6486;DHT22;3276;48.490;9.222;2023-11-19T10:48:08;15.70;2.70
6486;DHT22;3276;48.490;9.222;2023-11-19T10:50:35;15.70;2.40
6486;DHT22;3276;48.490;9.222;2023-11-19T10:53:02;15.70;2.90
6486;DHT22;3276;48.490;9.222;2023-11-19T10:55:30;15.40;2.90
6486;DHT22;3276;48.490;9.222;2023-11-19T10:58:00;15.40;4.40
6486;DHT22;3276;48.490;9.222;2023-11-19T11:01:16;15.50;4.50
6486;DHT22;3276;48.490;9.222;2023-11-19T11:03:19;15.30;3.80
6486;DHT22;3276;48.490;9.222;2023-11-19T11:05:48;15.30;4.30
6486;DHT22;3276;48.490;9.222;2023-11-19T11:08:14;15.40;4.40
6486;DHT22;3276;48.490;9.222;2023-11-19T11:10:44;15.10;3.40
6486;DHT22;3276;48.490;9.222;2023-11-19T11:13:10;15.20;4.30
6486;DHT22;3276;48.490;9.222;2023-11-19T11:15:37;15.30;5.10
6486;DHT22;3276;48.490;9.222;2023-11-19T11:18:05;15.70;6.80
6486;DHT22;3276;48.490;9.222;2023-11-19T11:20:33;16.00;3.20
6486;DHT22;3276;48.490;9.222;2023-11-19T11:26:23;15.70;1.00
6486;DHT22;3276;48.490;9.222;2023-11-19T11:45:07;14.90;19.50
6486;DHT22;3276;48.490;9.222;2023-11-19T11:50:20;15.00;21.30
6486;DHT22;3276;48.490;9.222;2023-11-19T11:55:36;15.70;19.80
6486;DHT22;3276;48.490;9.222;2023-11-19T11:58:03;16.10;18.30
6486;DHT22;3276;48.490;9.222;2023-11-19T12:00:32;16.50;17.60
6486;DHT22;3276;48.490;9.222;2023-11-19T12:03:02;16.80;16.90
6486;DHT22;3276;48.490;9.222;2023-11-19T12:05:30;17.00;15.30
6486;DHT22;3276;48.490;9.222;2023-11-19T12:08:04;16.80;14.80
6486;DHT22;3276;48.490;9.222;2023-11-19T12:10:34;16.90;16.00
6486;DHT22;3276;48.490;9.222;2023-11-19T12:13:05;16.80;14.80
6486;DHT22;3276;48.490;9.222;2023-11-19T12:15:32;16.60;14.30
6486;DHT22;3276;48.490;9.222;2023-11-19T12:17:58;16.50;15.90
6486;DHT22;3276;48.490;9.222;2023-11-19T12:20:25;16.50;15.80
6486;DHT22;3276;48.490;9.222;2023-11-19T12:22:52;16.20;15.20
6486;DHT22;3276;48.490;9.222;2023-11-19T12:25:19;15.90;15.70
6486;DHT22;3276;48.490;9.222;2023-11-19T12:27:50;15.80;16.50
6486;DHT22;3276;48.490;9.222;2023-11-19T12:30:27;15.60;17.90
6486;DHT22;3276;48.490;9.222;2023-11-19T12:32:54;15.80;18.00
6486;DHT22;3276;48.490;9.222;2023-11-19T12:35:20;15.90;18.10
6486;DHT22;3276;48.490;9.222;2023-11-19T12:37:47;15.80;18.00
6486;DHT22;3276;48.490;9.222;2023-11-19T12:40:23;15.80;17.20
6486;DHT22;3276;48.490;9.222;2023-11-19T12:42:53;16.20;16.70
6486;DHT22;3276;48.490;9.222;2023-11-19T12:45:19;16.40;13.00
6486;DHT22;3276;48.490;9.222;2023-11-19T12:47:47;16.30;14.00
6486;DHT22;3276;48.490;9.222;2023-11-19T12:50:14;16.10;13.40
6486;DHT22;3276;48.490;9.222;2023-11-19T12:52:40;16.00;13.40
6486;DHT22;3276;48.490;9.222;2023-11-19T12:55:29;16.20;13.40
6486;DHT22;3276;48.490;9.222;2023-11-19T12:57:55;16.70;10.70
6486;DHT22;3276;48.490;9.222;2023-11-19T13:00:22;16.60;11.90
6486;DHT22;3276;48.490;9.222;2023-11-19T13:02:53;16.90;10.20
6486;DHT22;3276;48.490;9.222;2023-11-19T13:08:06;16.80;11.30
6486;DHT22;3276;48.490;9.222;2023-11-19T13:10:33;17.50;10.40
6486;DHT22;3276;48.490;9.222;2023-11-19T13:13:06;17.60;8.30
6486;DHT22;3276;48.490;9.222;2023-11-19T13:15:37;17.70;9.60
6486;DHT22;3276;48.490;9.222;2023-11-19T13:18:02;17.80;8.00
6486;DHT22;3276;48.490;9.222;2023-11-19T13:20:29;18.20;7.60
6486;DHT22;3276;48.490;9.222;2023-11-19T13:25:25;18.70;6.10
6486;DHT22;3276;48.490;9.222;2023-11-19T13:27:51;18.80;5.40
6486;DHT22;3276;48.490;9.222;2023-11-19T13:30:16;18.20;5.30
6486;DHT22;3276;48.490;9.222;2023-11-19T13:32:42;17.50;7.10
6486;DHT22;3276;48.490;9.222;2023-11-19T13:35:09;17.10;8.80
6486;DHT22;3276;48.490;9.222;2023-11-19T13:37:35;17.00;10.00
6486;DHT22;3276;48.490;9.222;2023-11-19T13:40:01;17.10;10.10
6486;DHT22;3276;48.490;9.222;2023-11-19T13:42:26;16.80;9.90
6486;DHT22;3276;48.490;9.222;2023-11-19T13:44:52;16.90;10.40
6486;DHT22;3276;48.490;9.222;2023-11-19T13:47:18;17.00;11.70
6486;DHT22;3276;48.490;9.222;2023-11-19T13:49:44;17.10;10.10
6486;DHT22;3276;48.490;9.222;2023-11-19T13:52:10;16.90;9.90
6486;DHT22;3276;48.490;9.222;2023-11-19T13:54:36;16.60;10.50
6486;DHT22;3276;48.490;9.222;2023-11-19T13:57:03;16.80;11.50
6486;DHT22;3276;48.490;9.222;2023-11-19T13:59:30;16.80;10.70
6486;DHT22;3276;48.490;9.222;2023-11-19T14:01:56;16.90;10.50
6486;DHT22;3276;48.490;9.222;2023-11-19T14:04:22;16.70;11.30
6486;DHT22;3276;48.490;9.222;2023-11-19T14:06:47;16.60;10.70
6486;DHT22;3276;48.490;9.222;2023-11-19T14:09:13;16.50;10.80
6486;DHT22;3276;48.490;9.222;2023-11-19T14:11:41;16.40;11.70
6486;DHT22;3276;48.490;9.222;2023-11-19T14:14:07;16.40;10.70
6486;DHT22;3276;48.490;9.222;2023-11-19T14:16:33;16.40;10.70
6486;DHT22;3276;48.490;9.222;2023-11-19T14:18:59;16.20;12.10
6486;DHT22;3276;48.490;9.222;2023-11-19T14:21:25;16.20;12.00
6486;DHT22;3276;48.490;9.222;2023-11-19T14:23:52;16.10;11.30
6486;DHT22;3276;48.490;9.222;2023-11-19T14:26:18;15.90;12.50
6486;DHT22;3276;48.490;9.222;2023-11-19T14:28:43;15.80;12.80
6486;DHT22;3276;48.490;9.222;2023-11-19T14:31:09;15.80;13.60
6486;DHT22;3276;48.490;9.222;2023-11-19T14:33:34;15.80;12.70
6486;DHT22;3276;48.490;9.222;2023-11-19T14:36:01;15.60;13.50
6486;DHT22;3276;48.490;9.222;2023-11-19T14:38:27;15.30;13.80
6486;DHT22;3276;48.490;9.222;2023-11-19T14:40:52;15.20;14.30
6486;DHT22;3276;48.490;9.222;2023-11-19T14:43:18;15.00;15.20
6486;DHT22;3276;48.490;9.222;2023-11-19T14:45:44;14.80;15.50
6486;DHT22;3276;48.490;9.222;2023-11-19T14:48:09;14.70;15.20
6486;DHT22;3276;48.490;9.222;2023-11-19T14:50:35;14.50;15.80
6486;DHT22;3276;48.490;9.222;2023-11-19T14:53:01;14.40;16.60
6486;DHT22;3276;48.490;9.222;2023-11-19T14:55:27;14.40;16.70
6486;DHT22;3276;48.490;9.222;2023-11-19T14:57:53;14.30;17.00
6486;DHT22;3276;48.490;9.222;2023-11-19T15:00:19;14.10;16.90
6486;DHT22;3276;48.490;9.222;2023-11-19T15:02:44;14.10;16.90
6486;DHT22;3276;48.490;9.222;2023-11-19T15:05:10;14.20;17.00
6486;DHT22;3276;48.490;9.222;2023-11-19T15:07:39;14.20;16.00
6486;DHT22;3276;48.490;9.222;2023-11-19T15:10:06;14.10;15.60
6486;DHT22;3276;48.490;9.222;2023-11-19T15:12:37;14.10;15.80
6486;DHT22;3276;48.490;9.222;2023-11-19T15:15:08;14.00;15.20
6486;DHT22;3276;48.490;9.222;2023-11-19T15:17:40;13.90;15.90
6486;DHT22;3276;48.490;9.222;2023-11-19T15:20:06;13.90;15.30
6486;DHT22;3276;48.490;9.222;2023-11-19T15:22:32;13.80;15.50
6486;DHT22;3276;48.490;9.222;2023-11-19T15:24:57;13.70;15.10
6486;DHT22;3276;48.490;9.222;2023-11-19T15:27:23;13.60;15.40
6486;DHT22;3276;48.490;9.222;2023-11-19T15:29:48;13.50;16.00
6486;DHT22;3276;48.490;9.222;2023-11-19T15:32:14;13.40;16.10
6486;DHT22;3276;48.490;9.222;2023-11-19T15:34:39;13.50;16.50
6486;DHT22;3276;48.490;9.222;2023-11-19T15:37:07;13.50;16.40
6486;DHT22;3276;48.490;9.222;2023-11-19T15:39:33;13.50;16.50
6486;DHT22;3276;48.490;9.222;2023-11-19T15:41:59;13.50;16.50
6486;DHT22;3276;48.490;9.222;2023-11-19T15:44:25;13.60;16.50
6486;DHT22;3276;48.490;9.222;2023-11-19T15:46:50;13.60;16.50
6486;DHT22;3276;48.490;9.222;2023-11-19T15:49:16;13.50;17.20
6486;DHT22;3276;48.490;9.222;2023-11-19T15:51:42;13.40;17.70
6486;DHT22;3276;48.490;9.222;2023-11-19T15:54:07;13.20;18.50
6486;DHT22;3276;48.490;9.222;2023-11-19T15:56:33;13.20;19.50
6486;DHT22;3276;48.490;9.222;2023-11-19T15:58:59;13.10;19.90
6486;DHT22;3276;48.490;9.222;2023-11-19T16:01:24;13.00;20.80
6486;DHT22;3276;48.490;9.222;2023-11-19T16:03:50;12.80;21.30
6486;DHT22;3276;48.490;9.222;2023-11-19T16:06:17;12.70;22.20
6486;DHT22;3276;48.490;9.222;2023-11-19T16:08:43;12.70;22.70
6486;DHT22;3276;48.490;9.222;2023-11-19T16:11:09;12.60;23.20
6486;DHT22;3276;48.490;9.222;2023-11-19T16:13:35;12.50;23.80
6486;DHT22;3276;48.490;9.222;2023-11-19T16:16:01;12.50;24.30
6486;DHT22;3276;48.490;9.222;2023-11-19T16:18:26;12.40;24.20
6486;DHT22;3276;48.490;9.222;2023-11-19T16:20:54;12.30;25.00
6486;DHT22;3276;48.490;9.222;2023-11-19T16:23:20;12.30;24.20
6486;DHT22;3276;48.490;9.222;2023-11-19T16:25:45;12.30;24.20
6486;DHT22;3276;48.490;9.222;2023-11-19T16:28:11;12.30;24.20
6486;DHT22;3276;48.490;9.222;2023-11-19T16:30:36;12.20;24.70
6486;DHT22;3276;48.490;9.222;2023-11-19T16:33:02;12.10;25.00
6486;DHT22;3276;48.490;9.222;2023-11-19T16:35:28;12.00;24.00